createdAt,value
2018-02-25T00:01:04.210Z,7.37
2018-02-25T00:03:30.538Z,12.00
2018-02-25T00:05:56.884Z,8.88
2018-02-25T00:08:23.256Z,11.15
2018-02-25T00:10:49.574Z,12.15
2018-02-25T00:13:15.907Z,11.98
2018-02-25T00:15:42.255Z,8.43
2018-02-25T00:18:09.607Z,10.32
2018-02-25T00:20:35.938Z,14.20
2018-02-25T00:23:02.258Z,12.90
2018-02-25T00:25:28.583Z,13.32
2018-02-25T00:27:54.916Z,8.23
2018-02-25T00:30:22.251Z,8.98
2018-02-25T00:32:48.584Z,8.27
2018-02-25T00:35:14.919Z,11.15
2018-02-25T00:37:41.243Z,9.18
2018-02-25T00:40:07.561Z,12.35
2018-02-25T00:42:33.889Z,8.02
2018-02-25T00:45:00.242Z,12.77
2018-02-25T00:47:26.558Z,10.23
2018-02-25T00:49:52.878Z,8.18
2018-02-25T00:52:19.213Z,11.32
2018-02-25T00:54:45.550Z,9.70
2018-02-25T00:57:11.926Z,11.75
2018-02-25T00:59:38.243Z,11.18
2018-02-25T01:02:04.570Z,9.68
2018-02-25T01:04:30.898Z,10.57
2018-02-25T01:06:57.234Z,7.70
2018-02-25T01:09:23.554Z,13.02
2018-02-25T01:11:49.870Z,8.20
2018-02-25T01:14:16.189Z,8.60
2018-02-25T01:16:42.508Z,10.40
2018-02-25T01:19:09.575Z,8.23
2018-02-25T01:21:35.924Z,11.73
2018-02-25T01:24:02.260Z,8.60
2018-02-25T01:26:28.591Z,9.35
2018-02-25T01:28:54.916Z,9.35
2018-02-25T01:31:21.250Z,7.90
2018-02-25T01:33:49.350Z,9.55
2018-02-25T01:36:15.666Z,6.70
2018-02-25T01:38:42.043Z,7.45
2018-02-25T01:41:08.376Z,8.02
2018-02-25T01:43:35.438Z,13.02
2018-02-25T01:46:02.520Z,8.15
2018-02-25T01:48:29.099Z,8.98
2018-02-25T01:51:02.338Z,11.35
2018-02-25T01:53:29.657Z,9.80
2018-02-25T01:55:55.977Z,8.57
2018-02-25T01:58:22.315Z,9.15
2018-02-25T02:00:48.634Z,12.27
2018-02-25T02:03:14.963Z,13.15
2018-02-25T02:05:41.323Z,10.43
2018-02-25T02:08:08.407Z,13.00
2018-02-25T02:10:35.464Z,10.48
2018-02-25T02:13:01.771Z,10.45
2018-02-25T02:15:28.086Z,11.80
2018-02-25T02:17:55.146Z,12.50
2018-02-25T02:20:21.478Z,13.15
2018-02-25T02:22:47.849Z,12.07
2018-02-25T02:25:14.176Z,11.23
2018-02-25T02:27:40.497Z,9.43
2018-02-25T02:30:06.843Z,10.10
2018-02-25T02:32:33.186Z,11.35
2018-02-25T02:34:59.507Z,11.80
2018-02-25T02:37:25.825Z,15.63
2018-02-25T02:39:53.179Z,15.20
2018-02-25T02:42:19.512Z,13.55
2018-02-25T02:44:45.872Z,12.95
2018-02-25T02:47:12.172Z,14.55
2018-02-25T02:49:38.498Z,12.32
2018-02-25T02:52:04.848Z,19.55
2018-02-25T02:54:31.165Z,14.13
2018-02-25T02:56:57.795Z,15.70
2018-02-25T02:59:24.102Z,17.52
2018-02-25T03:01:52.236Z,12.15
2018-02-25T03:04:18.594Z,20.88
2018-02-25T03:06:44.962Z,16.40
2018-02-25T03:09:11.289Z,21.08
2018-02-25T03:11:37.623Z,12.75
2018-02-25T03:14:03.987Z,15.07
2018-02-25T03:16:30.310Z,18.58
2018-02-25T03:18:57.387Z,17.25
2018-02-25T03:21:23.709Z,16.50
2018-02-25T03:23:50.030Z,19.48
2018-02-25T03:26:16.330Z,20.17
2018-02-25T03:28:42.699Z,22.05
2018-02-25T03:31:09.023Z,22.92
2018-02-25T03:33:36.383Z,18.08
2018-02-25T03:36:02.737Z,18.73
2018-02-25T03:38:29.100Z,16.60
2018-02-25T03:40:56.175Z,21.42
2018-02-25T03:43:22.555Z,16.40
2018-02-25T03:45:48.878Z,18.80
2018-02-25T03:48:15.186Z,16.98
2018-02-25T03:50:41.515Z,21.87
2018-02-25T03:53:07.851Z,18.60
2018-02-25T03:55:34.174Z,20.75
2018-02-25T03:58:00.506Z,24.55
2018-02-25T04:00:27.862Z,17.35
2018-02-25T04:02:55.193Z,22.50
2018-02-25T04:05:21.557Z,19.15
2018-02-25T04:07:48.893Z,15.73
2018-02-25T04:10:15.204Z,22.55
2018-02-25T04:12:42.558Z,18.83
2018-02-25T04:15:09.858Z,24.48
2018-02-25T04:17:36.189Z,20.62
2018-02-25T04:20:02.575Z,21.08
2018-02-25T04:22:28.859Z,20.65
2018-02-25T04:24:55.179Z,22.37
2018-02-25T04:27:21.511Z,22.45
2018-02-25T04:29:47.839Z,23.98
2018-02-25T04:32:14.151Z,24.15
2018-02-25T04:34:40.483Z,18.27
2018-02-25T04:37:06.858Z,24.90
2018-02-25T04:39:33.206Z,24.95
2018-02-25T04:42:00.269Z,22.55
2018-02-25T04:44:27.346Z,18.08
2018-02-25T04:46:53.679Z,24.95
2018-02-25T04:49:20.000Z,25.60
2018-02-25T04:51:46.346Z,19.10
2018-02-25T04:54:12.724Z,22.48
2018-02-25T04:56:39.035Z,24.08
2018-02-25T04:59:05.352Z,23.02
2018-02-25T05:01:31.654Z,26.40
2018-02-25T05:03:57.970Z,31.05
2018-02-25T05:06:25.015Z,22.60
2018-02-25T05:08:51.318Z,20.95
2018-02-25T05:11:17.627Z,21.42
2018-02-25T05:13:43.952Z,21.23
2018-02-25T05:16:10.267Z,21.52
2018-02-25T05:18:36.570Z,29.17
2018-02-25T05:21:03.626Z,22.80
2018-02-25T05:23:30.698Z,23.62
2018-02-25T05:25:57.021Z,19.73
2018-02-25T05:28:23.363Z,26.33
2018-02-25T05:30:49.678Z,22.20
2018-02-25T05:33:15.985Z,23.05
2018-02-25T05:35:42.291Z,24.40
2018-02-25T05:38:08.632Z,32.85
2018-02-25T05:40:34.951Z,21.37
2018-02-25T05:43:01.274Z,25.62
2018-02-25T05:45:27.611Z,23.83
2018-02-25T05:47:53.922Z,27.27
2018-02-25T05:50:20.247Z,26.05
2018-02-25T05:52:46.819Z,29.65
2018-02-25T05:55:13.123Z,25.33
2018-02-25T05:57:39.426Z,25.35
2018-02-25T06:00:05.770Z,28.30
2018-02-25T06:02:32.094Z,30.60
2018-02-25T06:04:58.417Z,23.42
2018-02-25T06:07:24.731Z,35.03
2018-02-25T06:09:51.807Z,28.15
2018-02-25T06:12:18.118Z,20.88
2018-02-25T06:14:45.181Z,27.05
2018-02-25T06:17:11.524Z,23.33
2018-02-25T06:19:37.866Z,22.62
2018-02-25T06:22:04.174Z,23.92
2018-02-25T06:24:30.492Z,24.87
2018-02-25T06:26:57.579Z,31.15
2018-02-25T06:29:23.930Z,27.90
2018-02-25T06:31:50.280Z,21.37
2018-02-25T06:34:16.589Z,20.08
2018-02-25T06:36:42.914Z,25.50
2018-02-25T06:39:09.287Z,20.37
2018-02-25T06:41:35.630Z,24.33
2018-02-25T06:44:02.691Z,23.70
2018-02-25T06:46:29.019Z,19.83
2018-02-25T06:48:57.060Z,22.65
2018-02-25T06:51:23.375Z,30.85
2018-02-25T06:53:49.683Z,26.15
2018-02-25T06:56:16.015Z,24.05
2018-02-25T06:58:42.334Z,27.13
2018-02-25T07:01:08.686Z,19.58
2018-02-25T07:03:35.146Z,25.65
2018-02-25T07:06:01.484Z,23.98
2018-02-25T07:08:27.779Z,19.50
2018-02-25T07:10:54.122Z,18.87
2018-02-25T07:13:20.423Z,23.17
2018-02-25T07:15:46.726Z,19.00
2018-02-25T07:18:14.801Z,28.02
2018-02-25T07:20:42.851Z,24.20
2018-02-25T07:23:09.209Z,21.45
2018-02-25T07:25:36.258Z,22.75
2018-02-25T07:28:03.304Z,27.02
2018-02-25T07:30:30.360Z,21.15
2018-02-25T07:32:57.418Z,23.48
2018-02-25T07:35:23.794Z,29.80
2018-02-25T07:37:50.108Z,20.80
2018-02-25T07:40:16.418Z,17.25
2018-02-25T07:42:42.771Z,15.95
2018-02-25T07:45:09.075Z,23.35
2018-02-25T07:47:35.407Z,17.80
2018-02-25T07:50:01.722Z,18.77
2018-02-25T07:52:28.780Z,16.17
2018-02-25T07:54:55.097Z,12.30
2018-02-25T07:57:22.228Z,13.00
2018-02-25T07:59:48.527Z,27.92
2018-02-25T08:02:14.896Z,22.15
2018-02-25T08:04:41.207Z,21.05
2018-02-25T08:07:07.530Z,16.85
2018-02-25T08:09:33.835Z,19.15
2018-02-25T08:12:00.157Z,21.00
2018-02-25T08:14:26.491Z,17.45
2018-02-25T08:16:52.814Z,21.17
2018-02-25T08:19:19.906Z,24.65
2018-02-25T08:21:47.275Z,22.10
2018-02-25T08:24:13.614Z,16.10
2018-02-25T08:26:39.932Z,17.67
2018-02-25T08:29:06.256Z,19.12
2018-02-25T08:31:32.575Z,23.02
2018-02-25T08:33:58.905Z,15.20
2018-02-25T08:36:26.238Z,19.10
2018-02-25T08:38:52.810Z,15.95
2018-02-25T08:41:19.157Z,13.02
2018-02-25T08:43:45.491Z,20.00
2018-02-25T08:46:11.827Z,16.10
2018-02-25T08:48:38.163Z,17.90
2018-02-25T08:51:04.486Z,13.98
2018-02-25T08:53:30.814Z,15.50
2018-02-25T08:55:57.125Z,14.10
2018-02-25T08:58:24.425Z,20.55
2018-02-25T09:00:51.510Z,17.17
2018-02-25T09:03:17.818Z,14.02
2018-02-25T09:05:44.875Z,14.60
2018-02-25T09:08:11.210Z,16.65
2018-02-25T09:10:37.554Z,19.70
2018-02-25T09:13:04.623Z,13.25
2018-02-25T09:15:30.932Z,15.90
2018-02-25T09:17:58.302Z,12.30
2018-02-25T09:20:24.645Z,14.20
2018-02-25T09:22:50.962Z,14.98
2018-02-25T09:25:17.296Z,13.48
2018-02-25T09:27:43.794Z,12.95
2018-02-25T09:30:10.859Z,15.95
2018-02-25T09:32:38.219Z,13.25
2018-02-25T09:35:04.538Z,12.23
2018-02-25T09:37:30.864Z,11.98
2018-02-25T09:39:57.923Z,12.13
2018-02-25T09:42:24.279Z,14.43
2018-02-25T09:44:50.586Z,11.65
2018-02-25T09:47:16.902Z,11.27
2018-02-25T09:49:43.974Z,9.68
2018-02-25T09:52:10.518Z,9.10
2018-02-25T09:54:36.827Z,13.85
2018-02-25T09:57:03.138Z,11.02
2018-02-25T09:59:30.217Z,10.25
2018-02-25T10:01:56.530Z,11.52
2018-02-25T10:04:23.579Z,12.85
2018-02-25T10:06:49.963Z,10.95
2018-02-25T10:09:16.282Z,13.82
2018-02-25T10:11:42.591Z,12.27
2018-02-25T10:14:08.908Z,12.30
2018-02-25T10:16:35.970Z,11.38
2018-02-25T10:19:02.355Z,10.50
2018-02-25T10:21:28.635Z,11.60
2018-02-25T10:23:54.969Z,9.60
2018-02-25T10:26:21.279Z,12.00
2018-02-25T10:28:48.330Z,10.43
2018-02-25T10:31:15.386Z,15.85
2018-02-25T10:33:42.721Z,9.75
2018-02-25T10:36:09.766Z,9.85
2018-02-25T10:38:36.436Z,12.77
2018-02-25T10:41:02.804Z,9.23
2018-02-25T10:43:29.115Z,11.40
2018-02-25T10:45:55.459Z,13.13
2018-02-25T10:48:21.804Z,10.82
2018-02-25T10:50:49.131Z,11.57
2018-02-25T10:53:15.448Z,11.50
2018-02-25T10:55:41.774Z,13.00
2018-02-25T10:58:08.125Z,11.77
2018-02-25T11:00:35.374Z,9.48
2018-02-25T11:03:01.706Z,10.25
2018-02-25T11:05:28.026Z,9.65
2018-02-25T11:07:54.334Z,12.95
2018-02-25T11:10:20.698Z,11.40
2018-02-25T11:12:47.018Z,8.75
2018-02-25T11:15:13.339Z,14.23
2018-02-25T11:17:40.522Z,9.85
2018-02-25T11:20:08.014Z,9.20
2018-02-25T11:22:34.323Z,13.70
2018-02-25T11:25:00.618Z,8.32
2018-02-25T11:27:26.980Z,10.68
2018-02-25T11:29:53.306Z,9.93
2018-02-25T11:32:19.623Z,10.00
2018-02-25T11:34:45.965Z,12.50
2018-02-25T11:37:12.306Z,7.22
2018-02-25T11:39:38.667Z,12.52
2018-02-25T11:42:05.007Z,10.75
2018-02-25T11:44:31.347Z,8.27
2018-02-25T11:46:58.411Z,8.77
2018-02-25T11:49:25.479Z,10.35
2018-02-25T11:51:51.806Z,7.50
2018-02-25T11:54:18.125Z,9.35
2018-02-25T11:56:46.211Z,7.43
2018-02-25T11:59:12.572Z,7.05
2018-02-25T12:01:38.902Z,7.62
2018-02-25T12:04:05.238Z,6.85
2018-02-25T12:06:31.878Z,8.95
2018-02-25T12:08:58.206Z,8.40
2018-02-25T12:11:24.543Z,8.60
2018-02-25T12:13:50.862Z,8.48
2018-02-25T12:16:17.198Z,7.80
2018-02-25T12:18:43.519Z,8.30
2018-02-25T12:21:09.839Z,8.80
2018-02-25T12:23:36.350Z,7.35
2018-02-25T12:26:03.407Z,10.13
2018-02-25T12:28:29.779Z,6.12
2018-02-25T12:30:56.096Z,8.23
2018-02-25T12:33:22.567Z,9.25
2018-02-25T12:35:48.878Z,7.28
2018-02-25T12:38:15.199Z,9.88
2018-02-25T12:40:41.531Z,13.00
2018-02-25T12:43:07.853Z,9.40
2018-02-25T12:45:34.201Z,11.52
2018-02-25T12:48:00.522Z,11.32
2018-02-25T12:50:26.879Z,6.22
2018-02-25T12:52:53.199Z,9.05
2018-02-25T12:55:19.536Z,9.52
2018-02-25T12:57:45.864Z,6.20
2018-02-25T13:00:12.179Z,10.35
2018-02-25T13:02:38.526Z,9.15
2018-02-25T13:05:04.862Z,10.18
2018-02-25T13:07:32.230Z,7.10
2018-02-25T13:09:59.562Z,8.15
2018-02-25T13:12:25.880Z,10.60
2018-02-25T13:14:52.198Z,12.40
2018-02-25T13:17:18.519Z,10.35
2018-02-25T13:19:45.597Z,9.73
2018-02-25T13:22:11.935Z,9.35
2018-02-25T13:24:38.283Z,9.98
2018-02-25T13:27:04.627Z,8.75
2018-02-25T13:29:30.948Z,8.30
2018-02-25T13:31:57.269Z,11.32
2018-02-25T13:34:23.617Z,11.82
2018-02-25T13:36:49.935Z,10.20
2018-02-25T13:39:16.296Z,11.20
2018-02-25T13:41:42.631Z,11.50
2018-02-25T13:44:09.690Z,9.07
2018-02-25T13:46:36.755Z,10.27
2018-02-25T13:49:03.107Z,8.15
2018-02-25T13:51:30.199Z,12.32
2018-02-25T13:53:56.509Z,7.82
2018-02-25T13:56:22.898Z,9.20
2018-02-25T13:58:49.216Z,10.55
2018-02-25T14:01:16.288Z,9.85
2018-02-25T14:03:42.625Z,11.35
2018-02-25T14:06:08.974Z,12.70
2018-02-25T14:08:35.303Z,10.98
2018-02-25T14:11:02.623Z,9.95
2018-02-25T14:13:29.689Z,11.45
2018-02-25T14:15:56.007Z,8.52
2018-02-25T14:18:22.407Z,9.90
2018-02-25T14:20:48.746Z,12.00
2018-02-25T14:23:15.100Z,10.23
2018-02-25T14:25:41.569Z,10.98
2018-02-25T14:28:08.651Z,11.90
2018-02-25T14:30:34.992Z,10.70
2018-02-25T14:33:01.736Z,11.95
2018-02-25T14:35:28.052Z,9.05
2018-02-25T14:37:54.404Z,12.95
2018-02-25T14:40:21.446Z,10.48
2018-02-25T14:42:47.766Z,15.82
2018-02-25T14:45:14.098Z,11.40
2018-02-25T14:47:40.443Z,11.05
2018-02-25T14:50:06.759Z,11.95
2018-02-25T14:52:34.102Z,10.40
2018-02-25T14:55:00.419Z,9.55
2018-02-25T14:57:26.740Z,9.00
2018-02-25T14:59:53.277Z,11.18
2018-02-25T15:02:19.624Z,14.48
2018-02-25T15:04:45.966Z,12.63
2018-02-25T15:07:12.282Z,12.93
2018-02-25T15:09:38.600Z,10.57
2018-02-25T15:12:04.958Z,10.68
2018-02-25T15:14:31.254Z,11.45
2018-02-25T15:16:57.578Z,13.02
2018-02-25T15:19:24.934Z,11.05
2018-02-25T15:21:52.257Z,10.35
2018-02-25T15:24:19.561Z,12.23
2018-02-25T15:26:46.895Z,12.35
2018-02-25T15:29:13.255Z,11.05
2018-02-25T15:31:40.601Z,8.73
2018-02-25T15:34:07.971Z,10.32
2018-02-25T15:36:35.283Z,11.75
2018-02-25T15:39:02.795Z,12.30
2018-02-25T15:41:30.198Z,11.88
2018-02-25T15:43:58.281Z,9.73
2018-02-25T15:46:24.688Z,11.48
2018-02-25T15:48:51.007Z,13.13
2018-02-25T15:51:17.326Z,11.77
2018-02-25T15:53:43.674Z,9.70
2018-02-25T15:56:09.995Z,13.95
2018-02-25T15:58:36.355Z,12.82
2018-02-25T16:01:03.418Z,12.93
2018-02-25T16:03:29.740Z,12.35
2018-02-25T16:05:56.801Z,10.57
2018-02-25T16:08:23.119Z,14.68
2018-02-25T16:10:50.204Z,12.15
2018-02-25T16:13:16.524Z,12.30
2018-02-25T16:15:42.826Z,11.82
2018-02-25T16:18:09.901Z,14.18
2018-02-25T16:20:36.216Z,10.48
2018-02-25T16:23:03.278Z,11.55
2018-02-25T16:25:29.582Z,13.15
2018-02-25T16:27:56.647Z,11.15
2018-02-25T16:30:23.695Z,16.25
2018-02-25T16:32:50.004Z,12.43
2018-02-25T16:35:16.310Z,14.68
2018-02-25T16:37:42.646Z,15.98
2018-02-25T16:40:09.956Z,21.87
2018-02-25T16:42:37.320Z,10.40
2018-02-25T16:45:03.643Z,16.00
2018-02-25T16:47:29.947Z,16.10
2018-02-25T16:49:57.074Z,16.08
2018-02-25T16:52:23.627Z,16.52
2018-02-25T16:54:49.934Z,18.62
2018-02-25T16:57:17.244Z,15.10
2018-02-25T16:59:44.627Z,10.90
2018-02-25T17:02:10.947Z,11.57
2018-02-25T17:04:37.278Z,17.23
2018-02-25T17:07:03.623Z,17.80
2018-02-25T17:09:29.956Z,13.62
2018-02-25T17:11:56.370Z,17.02
2018-02-25T17:14:22.961Z,13.93
2018-02-25T17:16:49.258Z,17.42
2018-02-25T17:19:15.572Z,18.25
2018-02-25T17:21:41.910Z,16.45
2018-02-25T17:24:08.247Z,15.05
2018-02-25T17:26:34.585Z,15.35
2018-02-25T17:29:00.951Z,11.65
2018-02-25T17:31:28.290Z,14.45
2018-02-25T17:33:55.616Z,15.40
2018-02-25T17:36:21.997Z,11.07
2018-02-25T17:38:48.351Z,13.00
2018-02-25T17:41:16.462Z,19.20
2018-02-25T17:43:42.831Z,14.55
2018-02-25T17:46:10.035Z,12.65
2018-02-25T17:48:36.465Z,33.55
2018-02-25T17:51:02.846Z,94.32
2018-02-25T17:53:29.275Z,180.63
2018-02-25T17:55:55.641Z,39.40
2018-02-25T17:58:23.764Z,20.92
2018-02-25T18:00:50.128Z,18.90
2018-02-25T18:03:17.222Z,20.25
2018-02-25T18:05:43.531Z,18.85
2018-02-25T18:08:09.880Z,21.95
2018-02-25T18:10:36.224Z,12.48
2018-02-25T18:13:03.566Z,15.05
2018-02-25T18:15:29.890Z,12.48
2018-02-25T18:17:56.240Z,13.68
2018-02-25T18:20:22.628Z,12.60
2018-02-25T18:22:49.702Z,11.57
2018-02-25T18:25:16.051Z,13.00
2018-02-25T18:27:42.395Z,9.80
2018-02-25T18:30:08.740Z,9.00
2018-02-25T18:32:35.083Z,14.40
2018-02-25T18:35:01.415Z,12.63
2018-02-25T18:37:27.758Z,13.80
2018-02-25T18:39:54.270Z,11.80
2018-02-25T18:42:20.618Z,14.87
2018-02-25T18:44:46.947Z,11.52
2018-02-25T18:47:13.363Z,16.52
2018-02-25T18:49:39.688Z,19.30
2018-02-25T18:52:06.885Z,16.98
2018-02-25T18:54:33.930Z,17.50
2018-02-25T18:57:00.962Z,14.77
2018-02-25T18:59:27.259Z,17.15
2018-02-25T19:01:53.546Z,10.15
2018-02-25T19:04:20.585Z,15.85
2018-02-25T19:06:46.882Z,14.30
2018-02-25T19:09:13.186Z,16.87
2018-02-25T19:11:39.522Z,14.05
2018-02-25T19:14:05.956Z,13.02
2018-02-25T19:16:37.621Z,13.23
2018-02-25T19:19:03.977Z,14.90
2018-02-25T19:21:30.282Z,14.10
2018-02-25T19:23:56.633Z,17.40
2018-02-25T19:26:22.981Z,16.58
2018-02-25T19:28:49.261Z,8.85
2018-02-25T19:31:15.644Z,14.52
2018-02-25T19:33:41.948Z,17.90
2018-02-25T19:36:14.263Z,14.85
2018-02-25T19:38:47.261Z,14.95
2018-02-25T19:41:20.502Z,12.93
2018-02-25T19:43:46.798Z,13.35
2018-02-25T19:46:13.119Z,20.55
2018-02-25T19:48:40.154Z,20.15
2018-02-25T19:51:07.203Z,18.20
2018-02-25T19:53:34.239Z,19.10
2018-02-25T19:56:00.542Z,15.13
2018-02-25T19:58:26.852Z,16.35
2018-02-25T20:00:53.190Z,15.88
2018-02-25T20:03:19.491Z,17.80
2018-02-25T20:05:45.791Z,16.37
2018-02-25T20:08:12.107Z,16.75
2018-02-25T20:10:38.423Z,20.30
2018-02-25T20:13:04.758Z,17.50
2018-02-25T20:15:31.725Z,23.42
2018-02-25T20:17:59.098Z,24.12
2018-02-25T20:20:26.147Z,28.60
2018-02-25T20:22:53.174Z,23.42
2018-02-25T20:25:19.590Z,26.70
2018-02-25T20:27:46.108Z,20.85
2018-02-25T20:30:13.414Z,17.17
2018-02-25T20:32:40.647Z,21.62
2018-02-25T20:35:07.048Z,25.15
2018-02-25T20:37:34.042Z,30.20
2018-02-25T20:40:00.352Z,24.48
2018-02-25T20:42:27.010Z,15.20
2018-02-25T20:44:53.291Z,21.40
2018-02-25T20:47:19.721Z,20.23
2018-02-25T20:49:46.016Z,21.95
2018-02-25T20:52:13.065Z,25.27
2018-02-25T20:54:40.119Z,31.15
2018-02-25T20:57:07.215Z,30.42
2018-02-25T20:59:33.599Z,18.23
2018-02-25T21:01:59.885Z,19.98
2018-02-25T21:04:26.165Z,26.85
2018-02-25T21:06:54.236Z,15.48
2018-02-25T21:09:21.280Z,13.23
2018-02-25T21:11:48.340Z,17.35
2018-02-25T21:14:14.655Z,20.98
2018-02-25T21:16:40.942Z,19.60
2018-02-25T21:19:07.235Z,16.65
2018-02-25T21:21:34.250Z,19.75
2018-02-25T21:24:00.539Z,21.50
2018-02-25T21:26:26.838Z,24.00
2018-02-25T21:28:53.871Z,21.12
2018-02-25T21:31:21.946Z,21.85
2018-02-25T21:33:48.234Z,19.95
2018-02-25T21:36:14.509Z,24.33
2018-02-25T21:38:41.582Z,20.55
2018-02-25T21:41:07.871Z,19.85
2018-02-25T21:43:34.180Z,15.45
2018-02-25T21:46:00.668Z,20.55
2018-02-25T21:48:27.734Z,17.75
2018-02-25T21:50:54.011Z,23.60
2018-02-25T21:53:20.343Z,21.20
2018-02-25T21:55:52.811Z,22.67
2018-02-25T21:58:25.230Z,22.13
2018-02-25T22:00:59.344Z,23.77
2018-02-25T22:03:29.587Z,27.60
2018-02-25T22:05:55.910Z,18.37
2018-02-25T22:08:22.215Z,26.45
2018-02-25T22:10:49.256Z,18.27
2018-02-25T22:13:15.563Z,15.27
2018-02-25T22:15:41.881Z,19.95
2018-02-25T22:18:08.170Z,21.55
2018-02-25T22:20:35.206Z,21.45
2018-02-25T22:23:02.242Z,18.92
2018-02-25T22:25:28.537Z,21.37
2018-02-25T22:27:54.882Z,19.02
2018-02-25T22:30:21.198Z,19.77
2018-02-25T22:32:47.494Z,24.37
2018-02-25T22:35:14.535Z,14.35
2018-02-25T22:37:41.568Z,18.20
2018-02-25T22:40:07.838Z,25.17
2018-02-25T22:42:34.143Z,21.20
2018-02-25T22:45:02.202Z,16.48
2018-02-25T22:47:29.681Z,22.92
2018-02-25T22:49:55.985Z,24.75
2018-02-25T22:52:22.282Z,23.38
2018-02-25T22:54:48.583Z,20.12
2018-02-25T22:57:14.850Z,20.42
2018-02-25T22:59:41.142Z,20.33
2018-02-25T23:02:07.417Z,25.65
2018-02-25T23:04:33.719Z,25.02
2018-02-25T23:07:00.002Z,19.80
2018-02-25T23:09:26.294Z,18.95
2018-02-25T23:11:52.578Z,21.80
2018-02-25T23:14:19.623Z,21.37
2018-02-25T23:16:47.003Z,29.73
2018-02-25T23:19:13.279Z,32.25
2018-02-25T23:21:40.594Z,27.20
2018-02-25T23:24:06.878Z,29.15
2018-02-25T23:26:33.191Z,20.20
2018-02-25T23:28:59.506Z,27.05
2018-02-25T23:31:25.806Z,25.45
2018-02-25T23:33:52.078Z,23.08
2018-02-25T23:36:18.370Z,24.00
2018-02-25T23:38:44.694Z,22.52
2018-02-25T23:41:11.723Z,22.20
2018-02-25T23:43:38.739Z,19.98
2018-02-25T23:46:05.066Z,16.48
2018-02-25T23:48:31.390Z,29.08
2018-02-25T23:50:57.710Z,24.12
2018-02-25T23:53:24.582Z,21.55
2018-02-25T23:55:50.873Z,19.05
2018-02-25T23:58:17.159Z,17.42
